Flight Track Log - Related Links

Times and Time Zones

All times are in EST time to prevent confusion due to time zone crossing. See the N319EE flight status page for this flight to view local times or setup timezone preferences in your user account.

Time Position Orientation Groundspeed Altitude Reporting Facility
EST Latitude Longitude Course Direction KTS MPH feet Rate Location/Type
Mon 03:52:25 PM 43.6575 -70.4125 286° West 150 173 4,400  Level Boston Center
Mon 03:53:26 PM 43.6642 -70.4642 280° West 138 159 6,700 2,430 Climbing Boston Center
Mon 03:54:26 PM 43.6753 -70.5206 285° West 142 163 9,300 2,226 Climbing Boston Center
Mon 03:55:30 PM 43.6850 -70.5758 284° West 148 170 11,300 1,756 Climbing Boston Center
Mon 03:56:29 PM 43.6956 -70.6378 283° West 165 190 12,900 1,525 Climbing Boston Center
Mon 03:57:32 PM 43.7083 -70.7058 285° West 181 208 14,400 1,452 Climbing Boston Center
Mon 03:58:33 PM 43.7061 -70.7822 268° West 195 224 15,900 1,488 Climbing Boston Center
Mon 03:59:33 PM 43.6875 -70.8483 249° West 189 217 17,400 1,426 Climbing Boston Center
Mon 04:00:35 PM 43.6678 -70.9131 247° West 184 212 18,800 1,122 Climbing Boston Center
Mon 04:01:36 PM 43.6503 -70.9711 247° West 187 215 19,700 590 Climbing Boston Center
Mon 04:02:37 PM 43.6311 -71.0392 249° West 190 219 20,000 150 Climbing Boston Center
Mon 04:03:36 PM 43.6086 -71.1106 246° West 201 231 20,000  Level Boston Center
Mon 04:04:40 PM 43.5817 -71.1989 247° West 209 241 20,000  Level Boston Center
Mon 04:05:40 PM 43.5625 -71.2731 250° West 206 237 20,000  Level Boston Center
Mon 04:06:41 PM 43.5428 -71.3500 251° West 212 244 20,000  Level Boston Center
Mon 04:07:41 PM 43.5233 -71.4247 250° West 208 239 20,000  Level Boston Center
Mon 04:08:41 PM 43.5028 -71.5006 250° West 210 242 20,000  Level Boston Center
Mon 04:09:43 PM 43.4831 -71.5767 250° West 211 243 20,000  Level Boston Center
Mon 04:10:43 PM 43.4633 -71.6514 250° West 209 241 20,000  Level Boston Center
Mon 04:11:47 PM 43.4439 -71.7258 250° West 207 238 20,000  Level Boston Center
Mon 04:12:47 PM 43.4219 -71.7989 248° West 207 238 20,000  Level Boston Center
Mon 04:13:47 PM 43.4028 -71.8778 252° West 214 246 20,000  Level Boston Center
Mon 04:14:48 PM 43.3825 -71.9550 250° West 215 247 20,000  Level Boston Center
Mon 04:15:48 PM 43.3575 -72.0467 249° West 215 247 20,000  Level Boston Center
Mon 04:16:52 PM 43.3369 -72.1222 250° West 213 245 20,000  Level Boston Center
Mon 04:17:52 PM 43.3156 -72.1983 249° West 213 245 20,000  Level Boston Center
Mon 04:18:53 PM 43.2953 -72.2758 250° West 217 250 20,000  Level Boston Center
Mon 04:19:53 PM 43.2739 -72.3539 249° West 218 251 20,000  Level Boston Center
Mon 04:20:54 PM 43.2525 -72.4319 249° West 219 252 20,000  Level Boston Center
Mon 04:21:57 PM 43.2322 -72.5083 250° West 215 247 20,000  Level Boston Center
Mon 04:22:58 PM 43.2106 -72.5839 249° West 214 246 20,000  Level Boston Center
Mon 04:23:58 PM 43.1900 -72.6600 250° West 214 246 20,000  Level Boston Center
Mon 04:24:59 PM 43.1686 -72.7367 249° West 217 250 20,000  Level Boston Center
Mon 04:26:00 PM 43.1472 -72.8144 249° West 218 251 20,000  Level Boston Center
Mon 04:27:00 PM 43.1231 -72.8992 249° West 215 247 20,000  Level Boston Center
Mon 04:28:01 PM 43.1011 -72.9786 249° West 221 254 20,000  Level Boston Center
Mon 04:29:01 PM 43.0794 -73.0581 250° West 211 243 20,000  Level Boston Center
Mon 04:30:04 PM 43.0575 -73.1347 249° West 216 249 20,000  Level Boston Center
Mon 04:31:05 PM 43.0358 -73.2106 249° West 216 249 20,000  Level Boston Center
Mon 04:32:05 PM 43.0144 -73.2875 249° West 217 250 20,000  Level Boston Center
Mon 04:33:06 PM 42.9914 -73.3678 249° West 218 251 20,000  Level Boston Center
Mon 04:34:07 PM 42.9697 -73.4447 249° West 218 251 20,000  Level Boston Center
Mon 04:35:07 PM 42.9475 -73.5225 249° West 220 253 20,000  Level Boston Center
Mon 04:36:08 PM 42.9258 -73.5994 249° West 218 251 20,000  Level Boston Center
Mon 04:37:09 PM 42.9028 -73.6775 248° West 221 254 20,000  Level Boston Center
Mon 04:38:09 PM 42.8806 -73.7544 249° West 219 252 20,000  Level Boston Center
Mon 04:39:13 PM 42.8550 -73.8439 249° West 222 255 20,000  Level Boston Center
Mon 04:40:14 PM 42.8325 -73.9214 248° West 221 254 20,000  Level Boston Center
Mon 04:41:12 PM 42.8094 -73.9989 248° West 221 254 20,000  Level Boston Center
Mon 04:42:16 PM 42.7853 -74.0825 249° West 223 257 20,000  Level Boston Center
Mon 04:43:17 PM 42.7606 -74.1619 247° West 226 260 20,000  Level Boston Center
Mon 04:45:18 PM 42.7150 -74.3194 249° West 225 259 20,000  Level Boston Center
Mon 04:46:19 PM 42.6914 -74.3997 248° West 227 261 20,000  Level Boston Center
Mon 04:48:20 PM 42.6453 -74.5578 255° West 226 260 20,000 -66 Level Boston Center
Mon 04:49:20 PM 42.6217 -74.6361 248° West 224 258 19,800 -496 Descending Boston Center
Mon 04:50:21 PM 42.5942 -74.7278 248° West 234 269 19,000 -787 Descending Boston Center
Mon 04:51:22 PM 42.5722 -74.8017 248° West 237 273 18,200 -689 Descending Boston Center
Mon 04:52:23 PM 42.5461 -74.8844 247° West 237 273 17,600 -787 Descending Boston Center
Mon 04:53:24 PM 42.5206 -74.9664 247° West 237 273 16,600 -968 Descending Boston Center
Mon 04:54:27 PM 42.4958 -75.0522 249° West 241 277 15,600 -1,122 Descending Boston Center
Mon 04:55:27 PM 42.4686 -75.1406 247° West 250 288 14,300 -1,438 Descending Boston Center
Mon 04:56:28 PM 42.4364 -75.2475 248° West 255 293 12,700 -1,672 Descending Boston Center
Mon 04:57:29 PM 42.4061 -75.3331 244° Southwest 253 291 10,900 -1,983 Descending Boston Center
Mon 04:58:29 PM 42.3733 -75.4122 241° Southwest 246 283 8,700 -2,132 Descending Boston Center
Mon 04:59:30 PM 42.3392 -75.4939 241° Southwest 248 285 6,600 -1,770 Descending Boston Center
Mon 05:00:31 PM 42.3058 -75.5750 241° Southwest 249 287 5,100 -1,328 Descending Boston Center
Mon 05:01:32 PM 42.2789 -75.6497 244° Southwest 242 278 3,900 -744 Descending Boston Center
Mon 05:02:32 PM 42.2536 -75.7228 245° Southwest 227 261 3,600 -194 Descending Boston Center
Mon 05:03:36 PM 42.2297 -75.7900 244° Southwest 208 239 3,500 -97 Descending Boston Center
Mon 05:04:36 PM 42.2089 -75.8556 247° West 196 226 3,400 -295 Descending Boston Center
Mon 05:05:38 PM 42.1900 -75.9144 247° West 181 208 2,900 -590 Descending Boston Center
Mon 05:06:38 PM 42.1883 -75.9619 267° West 157 181 2,200 -700 Descending Boston Center

Login

Don't have an account? Register now (free) for customized features, flight alerts, and more!